Time,TemperatureC,DewpointC,PressurehPa,WindDirection,WindDirectionDegrees,WindSpeedKMH,WindSpeedGustKMH,Humidity,HourlyPrecipMM,Conditions,Clouds,dailyrainMM,SolarRadiationWatts/m^2,UVIndex,SoftwareType,DateUTC
2026-09-03 00:04:58,14.2,7,1005.0,West,272,4,11.1,62,0.0,,,0.0,0,0,n/a,2026-09-02T12:04:58Z
2026-09-03 00:09:56,14.2,7,1005.0,West,271,5,11.3,62,0.0,,,0.0,0,0,n/a,2026-09-02T12:09:56Z
2026-09-03 00:14:54,14.4,7,1005.0,West,281,9,22.5,61,0.0,,,0.0,0,0,n/a,2026-09-02T12:14:54Z
2026-09-03 00:19:58,15.2,7.1,1005.0,West,274,10.1,20.9,58.2,0.0,,,0.0,0,0,n/a,2026-09-02T12:19:58Z
2026-09-03 00:24:58,16,7,1005.0,West,273,10.4,19.3,55.3,0.0,,,0.0,0,0,n/a,2026-09-02T12:24:58Z
2026-09-03 00:29:59,16.7,7.1,1005.0,West,272,8.3,22.5,53.3,0.0,,,0.0,0,0,n/a,2026-09-02T12:29:59Z
2026-09-03 00:34:59,16.9,7,1005.1,West,277,7.4,18.5,52,0.0,,,0.0,0,0,n/a,2026-09-02T12:34:59Z
2026-09-03 00:39:55,17,7.1,1005.4,West,278,8.9,19.3,51.8,0.0,,,0.0,0,0,n/a,2026-09-02T12:39:55Z
2026-09-03 00:44:56,17.3,6.9,1005.5,West,277,11.8,19.3,50.5,0.0,,,0.0,0,0,n/a,2026-09-02T12:44:56Z
2026-09-03 00:49:55,17.4,6.9,1005.4,West,273,8.2,18.5,50,0.0,,,0.0,0,0,n/a,2026-09-02T12:49:55Z
2026-09-03 00:54:56,17.4,6.9,1005.4,West,277,7.8,14.8,50,0.0,,,0.0,0,0,n/a,2026-09-02T12:54:56Z
2026-09-03 00:59:55,17.3,6.8,1005.4,West,276,8.6,16.7,50,0.0,,,0.0,0,0,n/a,2026-09-02T12:59:55Z
2026-09-03 01:04:54,17.2,6.9,1005.4,West,273,7.2,16.7,50.4,0.0,,,0.0,0,0,n/a,2026-09-02T13:04:54Z
2026-09-03 01:09:56,17.1,6.9,1005.5,West,278,7.1,16.7,51,0.0,,,0.0,0,0,n/a,2026-09-02T13:09:56Z
2026-09-03 01:14:57,17,6.7,1005.6,West,272,5.6,14.8,51,0.0,,,0.0,0,0,n/a,2026-09-02T13:14:57Z
2026-09-03 01:19:58,16.9,6.6,1005.7,West,278,4.6,9.7,51,0.0,,,0.0,0,0,n/a,2026-09-02T13:19:58Z
2026-09-03 01:24:57,16.8,6.6,1005.7,West,267,2.9,6.4,51,0.0,,,0.0,0,0,n/a,2026-09-02T13:24:57Z
2026-09-03 01:29:57,16.7,6.5,1005.7,West,271,2.3,6.4,51,0.0,,,0.0,0,0,n/a,2026-09-02T13:29:57Z
2026-09-03 01:34:59,16.5,6.5,1005.7,West,271,1.6,5.6,51.6,0.0,,,0.0,0,0,n/a,2026-09-02T13:34:59Z
2026-09-03 01:39:54,16.4,6.5,1005.7,WNW,288,1,6.4,52,0.0,,,0.0,0,0,n/a,2026-09-02T13:39:54Z
2026-09-03 01:44:54,16.1,6.5,1005.6,NW,312,3.4,6.4,53.1,0.0,,,0.0,0,0,n/a,2026-09-02T13:44:54Z
2026-09-03 01:49:59,15.9,6.6,1005.6,NW,316,2.7,6.4,54,0.0,,,0.0,0,0,n/a,2026-09-02T13:49:59Z
2026-09-03 01:54:54,15.7,6.7,1005.7,NW,309,4.4,12.9,54.9,0.0,,,0.0,0,0,n/a,2026-09-02T13:54:54Z
2026-09-03 01:59:53,15.7,6.7,1005.7,WNW,290,6,13,55,0.0,,,0.0,0,0,n/a,2026-09-02T13:59:53Z
2026-09-03 02:04:57,15.7,6.7,1005.7,West,280,4.5,11.3,55,0.0,,,0.0,0,0,n/a,2026-09-02T14:04:57Z
2026-09-03 02:09:55,15.7,6.7,1005.7,West,279,3.7,11.3,55,0.0,,,0.0,0,0,n/a,2026-09-02T14:09:55Z
2026-09-03 02:14:55,15.8,6.6,1005.6,WNW,282,8.6,16.7,54.3,0.0,,,0.0,0,0,n/a,2026-09-02T14:14:55Z
2026-09-03 02:19:55,16.2,6.5,1005.5,West,278,9.7,19.3,52.7,0.0,,,0.0,0,0,n/a,2026-09-02T14:19:55Z
2026-09-03 02:24:56,16.8,6.7,1005.6,West,277,10.2,22.5,51.3,0.0,,,0.0,0,0,n/a,2026-09-02T14:24:56Z
2026-09-03 02:29:58,17.1,6.7,1005.5,West,279,7.9,18.5,50.4,0.0,,,0.0,0,0,n/a,2026-09-02T14:29:58Z
2026-09-03 02:34:56,17.2,6.7,1005.6,WNW,287,7.6,16.7,50,0.0,,,0.0,0,0,n/a,2026-09-02T14:34:56Z
2026-09-03 02:39:56,17.2,6.7,1005.6,West,279,7.7,16.7,50,0.0,,,0.0,0,0,n/a,2026-09-02T14:39:56Z
2026-09-03 02:44:56,17.1,6.7,1005.7,WNW,290,8.1,20.9,50.2,0.0,,,0.0,0,0,n/a,2026-09-02T14:44:56Z
2026-09-03 02:49:53,17,6.7,1005.6,West,277,7.7,19.3,51,0.0,,,0.0,0,0,n/a,2026-09-02T14:49:53Z
2026-09-03 02:54:57,17,6.8,1005.5,West,274,10.1,24.1,51,0.0,,,0.0,0,0,n/a,2026-09-02T14:54:57Z
2026-09-03 02:59:55,17.2,6.7,1005.4,West,281,9.5,24.1,50.2,0.0,,,0.0,0,0,n/a,2026-09-02T14:59:55Z
2026-09-03 03:04:56,17.3,6.8,1005.4,West,273,7.5,24.1,50,0.0,,,0.0,0,0,n/a,2026-09-02T15:04:56Z
2026-09-03 03:09:57,17.3,6.8,1005.4,West,276,10.1,20.9,50,0.0,,,0.0,0,0,n/a,2026-09-02T15:09:57Z
2026-09-03 03:14:58,17.3,6.8,1005.4,West,281,7.1,16.7,50.3,0.0,,,0.0,0,0,n/a,2026-09-02T15:14:58Z
2026-09-03 03:19:54,17.2,6.9,1005.4,WNW,282,8.6,16.7,51,0.0,,,0.0,0,0,n/a,2026-09-02T15:19:54Z
2026-09-03 03:24:54,17,6.8,1005.4,West,278,6.6,16.7,51,0.0,,,0.0,0,0,n/a,2026-09-02T15:24:54Z
2026-09-03 03:29:54,16.9,7,1005.4,West,280,4.6,9.7,52,0.0,,,0.0,0,0,n/a,2026-09-02T15:29:54Z
2026-09-03 03:34:54,16.8,6.9,1005.4,West,272,3.7,9.7,52,0.0,,,0.0,0,0,n/a,2026-09-02T15:34:54Z
2026-09-03 03:39:55,16.6,6.9,1005.4,West,275,3.3,11.3,52.5,0.0,,,0.0,0,0,n/a,2026-09-02T15:39:55Z
2026-09-03 03:44:55,16.5,6.9,1005.4,West,279,3.8,9.7,53,0.0,,,0.0,0,0,n/a,2026-09-02T15:44:55Z
2026-09-03 03:49:54,16.4,6.8,1005.4,West,277,3.2,9.7,53,0.0,,,0.0,0,0,n/a,2026-09-02T15:49:54Z
2026-09-03 03:54:58,16.3,6.7,1005.4,West,278,2.9,6.4,53,0.0,,,0.0,0,0,n/a,2026-09-02T15:54:58Z
2026-09-03 03:59:57,16.2,6.7,1005.4,WNW,282,1.6,5.6,53.6,0.0,,,0.0,0,0,n/a,2026-09-02T15:59:57Z
2026-09-03 04:04:57,15.9,6.6,1005.5,WNW,282,1.2,3.7,54,0.0,,,0.0,0,0,n/a,2026-09-02T16:04:57Z
2026-09-03 04:09:59,15.6,6.6,1005.5,WNW,282,1.5,5.6,55,0.0,,,0.0,0,0,n/a,2026-09-02T16:09:59Z
2026-09-03 04:14:59,15.4,6.7,1005.4,WNW,283,1.5,5.6,56,0.0,,,0.0,0,0,n/a,2026-09-02T16:14:59Z
2026-09-03 04:19:55,15.1,6.6,1005.5,WNW,284,1.2,5.6,56.6,0.0,,,0.0,0,0,n/a,2026-09-02T16:19:55Z
2026-09-03 04:24:53,14.9,6.6,1005.5,WNW,286,0.2,3.7,57.4,0.0,,,0.0,0,0,n/a,2026-09-02T16:24:53Z
2026-09-03 04:29:59,14.6,6.5,1005.5,WNW,286,0.3,3.7,58,0.0,,,0.0,0,0,n/a,2026-09-02T16:29:59Z
2026-09-03 04:34:59,14.4,6.6,1005.5,WNW,287,0.7,3.7,59.4,0.0,,,0.0,0,0,n/a,2026-09-02T16:34:59Z
2026-09-03 04:39:55,14.2,6.5,1005.7,West,261,1,5.6,60,0.0,,,0.0,0,0,n/a,2026-09-02T16:39:55Z
2026-09-03 04:44:56,14.1,6.6,1005.7,WNW,285,0.6,5.6,60.8,0.0,,,0.0,0,0,n/a,2026-09-02T16:44:56Z
2026-09-03 04:49:57,14,6.6,1005.8,WNW,291,1.7,6.4,61,0.0,,,0.0,0,0,n/a,2026-09-02T16:49:57Z